createdAt,value
2019-03-19T19:03:21.813Z,21.20
2019-03-19T19:05:50.260Z,20.10
2019-03-19T19:08:18.717Z,18.70
2019-03-19T19:10:47.080Z,17.50
2019-03-19T19:13:15.384Z,16.40
2019-03-19T19:15:43.747Z,15.60
2019-03-19T19:18:12.124Z,14.90
2019-03-19T19:20:40.411Z,14.40
2019-03-19T19:23:08.795Z,14.00
2019-03-19T19:25:37.148Z,13.60
2019-03-19T19:28:05.541Z,13.30
2019-03-19T19:30:34.016Z,13.10
2019-03-19T19:33:02.767Z,12.90
2019-03-19T19:35:31.228Z,12.80
2019-03-19T19:37:59.734Z,12.70
2019-03-19T19:40:28.121Z,12.50
2019-03-19T19:42:56.464Z,12.40
2019-03-19T19:45:24.852Z,12.30
2019-03-19T19:47:53.255Z,12.20
2019-03-19T19:50:22.847Z,12.10
2019-03-19T19:52:51.226Z,12.10
2019-03-19T19:55:19.761Z,12.00
2019-03-19T19:57:48.134Z,11.90
2019-03-19T20:00:18.602Z,11.90
2019-03-19T20:02:46.970Z,11.90
2019-03-19T20:05:15.360Z,11.80
2019-03-19T20:07:43.741Z,11.80
2019-03-19T20:10:18.671Z,11.70
2019-03-19T20:12:47.048Z,11.70
2019-03-19T20:15:15.441Z,11.60
2019-03-19T20:17:43.975Z,11.60
2019-03-19T20:20:23.571Z,11.50
2019-03-19T20:22:52.529Z,11.50
2019-03-19T20:25:21.117Z,11.50
2019-03-19T20:27:49.680Z,11.40
2019-03-19T20:30:25.160Z,11.40
2019-03-19T20:32:53.473Z,11.30
2019-03-19T20:35:21.767Z,11.30
2019-03-19T20:37:50.244Z,11.40
2019-03-19T20:40:18.938Z,11.40
2019-03-19T20:42:47.607Z,11.50
2019-03-19T20:45:22.386Z,11.60
2019-03-19T20:47:50.977Z,11.70
2019-03-19T20:50:28.092Z,11.70
2019-03-19T20:52:56.761Z,11.70
2019-03-19T20:55:25.440Z,11.70
2019-03-19T20:57:54.004Z,11.70
2019-03-19T21:00:22.880Z,11.70
2019-03-19T21:02:51.843Z,11.70
2019-03-19T21:05:20.755Z,11.70
2019-03-19T21:07:49.737Z,11.70
2019-03-19T21:10:25.232Z,11.70
2019-03-19T21:12:54.160Z,11.70
2019-03-19T21:15:30.179Z,11.80
2019-03-19T21:17:59.126Z,11.90
2019-03-19T21:20:28.402Z,12.00
2019-03-19T21:22:57.255Z,12.10
2019-03-19T21:25:25.892Z,12.10
2019-03-19T21:27:54.488Z,12.20
2019-03-19T21:30:23.806Z,12.20
2019-03-19T21:32:52.396Z,12.20
2019-03-19T21:35:27.934Z,12.20
2019-03-19T21:37:56.762Z,12.10
2019-03-19T21:40:25.585Z,12.00
2019-03-19T21:42:54.140Z,11.90
2019-03-19T21:45:23.173Z,11.80
2019-03-19T21:47:51.871Z,11.70
2019-03-19T21:50:24.375Z,11.60
2019-03-19T21:52:52.967Z,11.60
2019-03-19T21:55:21.408Z,11.50
2019-03-19T21:57:49.779Z,11.50
2019-03-19T22:00:19.260Z,11.40
2019-03-19T22:02:47.901Z,11.40
2019-03-19T22:05:16.310Z,11.40
2019-03-19T22:07:44.680Z,11.40
2019-03-19T22:10:14.659Z,11.40
2019-03-19T22:12:43.042Z,11.30
2019-03-19T22:15:14.660Z,11.30
2019-03-19T22:17:43.116Z,11.20
2019-03-19T22:20:11.505Z,11.20
2019-03-19T22:22:40.184Z,11.10
2019-03-19T22:25:10.570Z,11.10
2019-03-19T22:27:38.964Z,11.00
2019-03-19T22:30:18.459Z,11.00
2019-03-19T22:32:46.812Z,10.90
2019-03-19T22:35:15.205Z,10.90
2019-03-19T22:37:43.569Z,10.80
2019-03-19T22:40:14.643Z,10.70
2019-03-19T22:43:02.691Z,10.60
2019-03-19T22:45:31.086Z,10.50
2019-03-19T22:47:59.441Z,10.50
2019-03-19T22:50:28.924Z,10.50
2019-03-19T22:52:57.302Z,10.40
2019-03-19T22:55:29.321Z,10.30
2019-03-19T22:57:55.844Z,10.30
2019-03-19T23:00:38.022Z,10.30
2019-03-19T23:03:07.456Z,10.20
2019-03-19T23:05:36.171Z,10.20
2019-03-19T23:08:04.941Z,10.20
2019-03-19T23:10:33.326Z,10.20
2019-03-19T23:13:01.673Z,10.10
2019-03-19T23:15:30.050Z,10.10
2019-03-19T23:17:58.376Z,10.00
2019-03-19T23:20:26.883Z,10.00
2019-03-19T23:22:55.289Z,10.00
2019-03-19T23:25:23.645Z,10.00
2019-03-19T23:27:52.067Z,10.00
2019-03-19T23:30:22.800Z,9.90
2019-03-19T23:32:51.229Z,9.90
2019-03-19T23:35:19.664Z,9.90
2019-03-19T23:37:48.017Z,9.90
2019-03-19T23:40:17.464Z,9.90
2019-03-19T23:42:45.889Z,9.80
2019-03-19T23:45:14.261Z,9.80
2019-03-19T23:47:42.660Z,9.80
2019-03-19T23:50:13.259Z,9.80
2019-03-19T23:52:41.544Z,9.80
2019-03-19T23:55:10.340Z,9.80
2019-03-19T23:57:38.766Z,9.70
